Time;durP1;ratioP1;P1;durP2;ratioP2;P2;SDS_P1;SDS_P2;PMS_P1;PMS_P2;Temp;Humidity;BMP_temperature;BMP_pressure;BME280_temperature;BME280_humidity;BME280_pressure;Samples;Min_cycle;Max_cycle;Signal;HPM_P1;HPM_P2
2022/06/09 00:01:23;;;;;;;6.70;6.13;;;;;;;21.37;80.90;98768.56;5069397;28;20188;-57
2022/06/09 00:03:55;;;;;;;6.77;6.27;;;;;;;21.25;80.93;98777.72;5069414;28;20577;-57
2022/06/09 00:06:24;;;;;;;7.10;6.33;;;;;;;21.28;81.18;98776.75;5069211;28;20191;-57
2022/06/09 00:08:53;;;;;;;7.17;6.47;;;;;;;21.29;81.21;98779.31;5072325;28;20253;-57
2022/06/09 00:11:23;;;;;;;6.50;6.00;;;;;;;21.31;81.37;98774.03;5072996;28;20219;-57
2022/06/09 00:13:52;;;;;;;6.70;6.00;;;;;;;21.32;81.21;98773.09;5063470;28;20199;-57
2022/06/09 00:16:19;;;;;;;7.00;6.00;;;;;;;21.28;81.18;98774.16;5072997;28;20199;-56
2022/06/09 00:18:46;;;;;;;6.77;6.10;;;;;;;21.26;81.41;98774.19;5073260;28;20939;-57
2022/06/09 00:21:12;;;;;;;6.30;5.80;;;;;;;21.26;81.39;98771.56;5072988;28;20199;-56
2022/06/09 00:23:39;;;;;;;6.80;6.10;;;;;;;21.27;81.71;98761.97;5055340;28;20204;-57
2022/06/09 00:26:06;;;;;;;6.55;6.05;;;;;;;21.27;81.86;98773.28;5063629;28;20813;-56
2022/06/09 00:28:33;;;;;;;6.23;5.63;;;;;;;21.31;81.47;98769.66;5072835;28;20198;-57
2022/06/09 00:31:01;;;;;;;6.00;5.50;;;;;;;21.30;81.67;98775.78;5064987;28;20261;-56
2022/06/09 00:33:28;;;;;;;7.73;5.83;;;;;;;21.28;81.55;98772.41;5054185;28;20238;-57
2022/06/09 00:35:55;;;;;;;6.13;5.63;;;;;;;21.27;81.63;98772.44;5068380;28;20196;-57
2022/06/09 00:38:22;;;;;;;6.07;5.53;;;;;;;21.19;81.75;98770.13;5071561;28;20950;-56
2022/06/09 00:40:48;;;;;;;5.93;5.43;;;;;;;21.22;81.58;98775.22;5071552;28;20265;-56
2022/06/09 00:43:15;;;;;;;5.90;5.30;;;;;;;21.26;81.80;98774.19;5071535;28;20203;-56
2022/06/09 00:45:47;;;;;;;6.00;5.50;;;;;;;21.26;81.41;98773.38;5072381;28;20449;-56
2022/06/09 00:48:38;;;;;;;6.10;5.60;;;;;;;21.29;80.83;98774.06;5072256;28;20191;-56
2022/06/09 00:51:18;;;;;;;5.90;5.30;;;;;;;21.28;80.97;98772.41;5072163;28;20231;-56
2022/06/09 00:53:46;;;;;;;6.40;5.27;;;;;;;21.29;80.74;98758.41;5072406;28;20191;-56
2022/06/09 00:56:14;;;;;;;5.60;5.10;;;;;;;21.23;80.29;98747.34;5072342;28;20234;-56
2022/06/09 00:58:45;;;;;;;6.37;5.10;;;;;;;21.23;80.22;98745.59;5072470;28;20199;-56
2022/06/09 01:01:15;;;;;;;5.70;5.10;;;;;;;21.30;79.83;98754.88;5072304;28;20214;-57
2022/06/09 01:03:47;;;;;;;5.20;4.80;;;;;;;21.34;79.92;98753.88;5071884;28;20198;-56
2022/06/09 01:06:20;;;;;;;5.07;4.67;;;;;;;21.27;80.02;98748.91;5072118;28;20219;-56
2022/06/09 01:08:54;;;;;;;6.10;4.83;;;;;;;21.29;80.01;98754.97;5071769;28;20292;-57
2022/06/09 01:11:21;;;;;;;5.63;5.13;;;;;;;21.31;79.89;98758.34;5071943;28;20240;-57
2022/06/09 01:13:48;;;;;;;5.63;4.93;;;;;;;21.31;79.61;98750.53;5072093;28;20202;-58
2022/06/09 01:16:25;;;;;;;5.10;4.70;;;;;;;21.26;79.89;98752.47;5071683;28;20195;-57
2022/06/09 01:19:04;;;;;;;5.55;5.05;;;;;;;21.28;80.32;98761.09;5070850;28;20432;-56
2022/06/09 01:22:05;;;;;;;4.90;4.50;;;;;;;21.31;80.31;98756.59;5071630;28;20219;-57
2022/06/09 01:25:02;;;;;;;4.70;4.40;;;;;;;21.28;80.18;98753.25;5071543;28;20195;-57
2022/06/09 01:27:50;;;;;;;4.87;4.37;;;;;;;21.20;80.39;98744.84;5071510;28;20192;-56
2022/06/09 01:30:21;;;;;;;5.67;5.10;;;;;;;21.07;80.87;98752.28;5071450;28;20195;-56
2022/06/09 01:32:58;;;;;;;5.07;4.67;;;;;;;21.08;80.99;98746.16;5071601;28;20219;-57
2022/06/09 01:35:32;;;;;;;8.03;5.00;;;;;;;21.05;80.99;98748.88;5071571;28;20214;-56
2022/06/09 01:38:01;;;;;;;5.13;4.60;;;;;;;21.03;81.12;98741.09;5071291;28;20240;-56
2022/06/09 01:40:29;;;;;;;4.83;4.43;;;;;;;21.01;81.65;98742.88;5071120;28;20194;-56
2022/06/09 01:42:58;;;;;;;4.97;4.57;;;;;;;20.99;81.89;98749.09;5071231;28;20188;-56
2022/06/09 01:45:30;;;;;;;6.53;4.43;;;;;;;20.96;82.15;98751.81;5071123;28;20195;-56
2022/06/09 01:48:03;;;;;;;4.63;4.20;;;;;;;20.92;82.36;98753.72;5071043;28;20662;-57
2022/06/09 01:50:36;;;;;;;5.20;4.67;;;;;;;20.87;83.11;98749.56;5071134;28;20192;-57
2022/06/09 01:53:10;;;;;;;5.40;4.93;;;;;;;20.88;83.08;98746.88;5071199;28;20226;-57
2022/06/09 01:55:43;;;;;;;5.17;4.70;;;;;;;20.93;83.03;98749.34;5071326;28;20195;-57
2022/06/09 01:58:12;;;;;;;5.93;5.03;;;;;;;20.93;82.95;98751.94;5071343;28;20195;-57
2022/06/09 02:00:40;;;;;;;5.10;4.60;;;;;;;20.92;83.04;98750.22;5071022;28;20188;-56
2022/06/09 02:03:13;;;;;;;4.90;4.50;;;;;;;20.93;82.75;98746.72;5070873;28;20195;-56
2022/06/09 02:05:46;;;;;;;5.03;4.40;;;;;;;20.96;82.04;98741.34;5071043;28;20191;-56
2022/06/09 02:08:17;;;;;;;5.23;4.80;;;;;;;20.91;81.99;98738.06;5070953;28;20230;-57
2022/06/09 02:10:47;;;;;;;4.63;4.10;;;;;;;20.91;81.98;98740.69;5070517;28;20375;-56
2022/06/09 02:13:18;;;;;;;5.27;4.77;;;;;;;20.90;82.04;98739.88;5070491;28;20212;-57
2022/06/09 02:15:48;;;;;;;4.60;4.20;;;;;;;20.90;81.91;98737.25;5070935;28;20184;-56
2022/06/09 02:18:20;;;;;;;4.63;4.17;;;;;;;20.83;81.92;98730.53;5070773;28;20195;-57
2022/06/09 02:20:51;;;;;;;4.90;4.50;;;;;;;20.86;82.03;98742.63;5070698;28;20622;-56
2022/06/09 02:23:18;;;;;;;5.23;4.73;;;;;;;20.84;82.31;98742.69;5070397;28;20248;-57
2022/06/09 02:25:45;;;;;;;6.70;5.73;;;;;;;20.85;82.38;98740.94;5070507;28;20281;-56
2022/06/09 02:28:12;;;;;;;6.30;5.20;;;;;;;20.86;82.71;98743.47;5070335;28;20274;-57
2022/06/09 02:30:39;;;;;;;6.27;5.67;;;;;;;20.87;82.94;98734.75;5069943;28;20221;-56
2022/06/09 02:33:07;;;;;;;6.55;5.95;;;;;;;20.90;83.30;98739.88;5069343;28;20475;-57
2022/06/09 02:35:35;;;;;;;7.80;5.97;;;;;;;20.95;82.84;98737.06;5070303;28;20195;-57
2022/06/09 02:38:02;;;;;;;6.30;5.67;;;;;;;20.98;82.95;98735.19;5070365;28;20191;-57
2022/06/09 02:40:29;;;;;;;7.20;6.60;;;;;;;21.01;82.93;98735.06;5070234;28;20658;-57
2022/06/09 02:42:57;;;;;;;7.43;6.73;;;;;;;20.99;82.86;98739.50;5070364;28;20193;-57
2022/06/09 02:45:24;;;;;;;7.30;6.47;;;;;;;21.00;82.88;98737.75;5069999;28;20249;-57
2022/06/09 02:47:51;;;;;;;7.30;6.60;;;;;;;20.99;82.90;98739.50;5070364;28;20191;-57
2022/06/09 02:50:18;;;;;;;7.23;6.53;;;;;;;20.98;83.04;98731.72;5070462;28;20195;-57
2022/06/09 02:52:46;;;;;;;7.40;6.70;;;;;;;20.95;83.09;98737.06;5069997;28;20218;-56
2022/06/09 02:55:14;;;;;;;6.67;6.07;;;;;;;20.97;83.21;98732.63;5070324;28;20257;-57
2022/06/09 02:57:41;;;;;;;8.00;6.50;;;;;;;20.94;83.16;98732.75;5070014;28;20192;-57
2022/06/09 03:00:12;;;;;;;7.13;6.43;;;;;;;20.95;82.95;98737.94;5070130;28;20574;-57
2022/06/09 03:02:39;;;;;;;8.23;6.53;;;;;;;20.93;83.00;98738.91;5069941;28;20638;-57
2022/06/09 03:05:06;;;;;;;8.35;6.88;;;;;;;20.92;83.31;98751.09;5069299;28;20484;-56
2022/06/09 03:07:32;;;;;;;8.67;6.27;;;;;;;20.91;83.23;98746.78;5069772;28;20191;-56
2022/06/09 03:10:01;;;;;;;9.30;6.40;;;;;;;20.93;82.79;98733.66;5069877;28;20227;-56
2022/06/09 03:12:28;;;;;;;8.67;6.87;;;;;;;20.93;82.89;98738.91;5069762;28;20229;-56
2022/06/09 03:14:54;;;;;;;6.90;6.13;;;;;;;20.95;83.00;98745.75;5069852;28;20201;-56
2022/06/09 03:17:21;;;;;;;6.77;6.07;;;;;;;20.99;82.68;98738.63;5069890;28;20196;-56
2022/06/09 03:19:48;;;;;;;7.67;6.53;;;;;;;21.02;82.28;98741.13;5069930;28;20218;-56
2022/06/09 03:22:15;;;;;;;7.43;6.73;;;;;;;21.02;82.72;98743.75;5069713;28;20187;-56
2022/06/09 03:24:42;;;;;;;7.83;7.13;;;;;;;21.07;82.39;98747.91;5069815;28;20196;-57
2022/06/09 03:27:10;;;;;;;9.63;7.07;;;;;;;21.10;82.20;98742.59;5069682;28;20191;-56
2022/06/09 03:29:37;;;;;;;7.80;6.60;;;;;;;21.17;81.65;98754.53;5069614;28;20207;-57
2022/06/09 03:32:04;;;;;;;8.47;6.50;;;;;;;21.19;81.51;98741.38;5069664;28;20219;-56
2022/06/09 03:34:31;;;;;;;8.70;6.53;;;;;;;21.24;81.42;98739.44;5069705;28;20191;-56
2022/06/09 03:36:58;;;;;;;7.87;6.83;;;;;;;21.32;81.23;98741.75;5069541;28;20241;-56
2022/06/09 03:39:24;;;;;;;7.10;6.40;;;;;;;21.36;80.92;98733.75;5069441;28;20199;-56
2022/06/09 03:41:51;;;;;;;8.23;7.50;;;;;;;21.34;80.42;98738.19;5069921;28;20188;-57
2022/06/09 03:44:20;;;;;;;7.57;6.77;;;;;;;21.36;80.37;98740.72;5073506;28;20218;-56
2022/06/09 03:46:46;;;;;;;10.17;7.93;;;;;;;21.47;80.28;98739.41;5073659;28;20196;-58
2022/06/09 03:49:14;;;;;;;8.30;7.50;;;;;;;21.51;79.18;98742.72;5073461;28;20195;-57
2022/06/09 03:51:40;;;;;;;8.57;7.77;;;;;;;21.54;78.74;98743.47;5073284;28;20672;-56
2022/06/09 03:54:07;;;;;;;9.43;8.10;;;;;;;21.58;78.68;98728.50;5073408;28;20219;-56
2022/06/09 03:56:34;;;;;;;9.37;8.47;;;;;;;21.63;78.56;98737.88;5073472;28;20194;-56
2022/06/09 03:59:01;;;;;;;9.73;8.67;;;;;;;21.68;78.40;98740.28;5072102;28;20449;-56
2022/06/09 04:01:29;;;;;;;8.97;8.07;;;;;;;21.76;77.84;98746.06;5073355;28;20265;-57
2022/06/09 04:03:56;;;;;;;10.57;9.53;;;;;;;21.81;77.34;98744.09;5073049;28;20195;-56
2022/06/09 04:06:25;;;;;;;11.37;9.10;;;;;;;21.86;77.05;98738.69;5073318;28;20213;-57
2022/06/09 04:08:52;;;;;;;16.40;10.00;;;;;;;21.90;76.91;98743.75;5072749;28;20232;-57
2022/06/09 04:11:21;;;;;;;11.37;9.47;;;;;;;21.95;76.63;98756.69;5073027;28;20191;-57
2022/06/09 04:13:47;;;;;;;14.03;11.10;;;;;;;22.00;76.90;98746.88;5072695;28;20706;-57
2022/06/09 04:16:24;;;;;;;15.70;11.30;;;;;;;22.09;76.61;98754.31;5072847;28;20191;-56
2022/06/09 04:18:53;;;;;;;16.27;11.88;;;;;;;22.18;75.83;98746.94;5072604;28;20754;-56
2022/06/09 04:21:21;;;;;;;14.10;10.77;;;;;;;22.30;75.51;98748.19;5072933;28;20245;-57
2022/06/09 04:23:47;;;;;;;11.53;10.40;;;;;;;22.33;74.86;98735.78;5072626;28;20196;-58
2022/06/09 04:26:17;;;;;;;11.53;10.33;;;;;;;22.45;73.99;98749.25;5073010;28;20203;-56
2022/06/09 04:28:44;;;;;;;11.33;9.07;;;;;;;22.32;74.40;98728.88;5072455;28;20566;-57
2022/06/09 04:31:13;;;;;;;15.63;9.90;;;;;;;22.41;75.12;98745.09;5072693;28;20260;-56
2022/06/09 04:33:40;;;;;;;13.63;9.67;;;;;;;22.26;76.45;98741.38;5072672;28;20223;-63
2022/06/09 04:36:10;;;;;;;19.60;10.47;;;;;;;21.91;78.27;98739.38;5072067;28;20195;-63
2022/06/09 04:38:37;;;;;;;12.73;10.10;;;;;;;21.69;79.50;98739.38;5071533;28;20841;-63
2022/06/09 04:41:09;;;;;;;17.80;11.17;;;;;;;21.60;80.08;98740.59;5071472;28;20192;-64
2022/06/09 04:43:36;;;;;;;12.23;10.93;;;;;;;21.67;80.55;98736.00;5072256;28;20219;-65
2022/06/09 04:46:04;;;;;;;15.90;10.57;;;;;;;21.52;80.96;98739.22;5072618;28;20199;-64
2022/06/09 04:48:31;;;;;;;13.53;11.23;;;;;;;21.65;81.01;98738.66;5072434;28;20191;-64
2022/06/09 04:50:58;;;;;;;18.47;11.63;;;;;;;21.87;80.05;98743.03;5072465;28;20270;-64
2022/06/09 04:53:26;;;;;;;13.73;10.77;;;;;;;21.76;80.49;98744.28;5071598;28;20219;-64
2022/06/09 04:55:53;;;;;;;14.77;11.30;;;;;;;21.68;80.47;98748.13;5072602;28;20617;-64
2022/06/09 04:58:20;;;;;;;15.47;11.60;;;;;;;21.77;79.72;98753.00;5072137;28;20666;-64
2022/06/09 05:00:46;;;;;;;12.63;11.17;;;;;;;21.63;80.28;98750.94;5072273;28;20203;-65
2022/06/09 05:03:13;;;;;;;16.27;11.87;;;;;;;21.85;79.85;98752.69;5072244;28;20256;-64
2022/06/09 05:05:42;;;;;;;18.30;11.73;;;;;;;22.07;78.75;98758.75;5071718;28;20188;-64
2022/06/09 05:08:10;;;;;;;15.70;11.87;;;;;;;22.04;78.72;98761.50;5071709;28;20200;-63
2022/06/09 05:10:38;;;;;;;15.67;11.97;;;;;;;21.78;78.83;98755.53;5071720;28;20184;-65
2022/06/09 05:13:06;;;;;;;15.67;11.50;;;;;;;21.72;79.86;98761.03;5071260;28;20280;-64
2022/06/09 05:15:33;;;;;;;18.33;12.43;;;;;;;21.98;79.12;98764.38;5071366;28;20191;-64
2022/06/09 05:18:00;;;;;;;16.47;11.80;;;;;;;22.20;78.35;98768.66;5065184;28;20614;-64
2022/06/09 05:20:27;;;;;;;15.93;12.40;;;;;;;22.30;78.05;98769.94;5066293;28;20277;-64
2022/06/09 05:22:54;;;;;;;20.33;12.50;;;;;;;22.43;77.25;98767.66;5068610;28;20245;-65
2022/06/09 05:25:21;;;;;;;16.60;12.07;;;;;;;22.70;76.89;98769.13;5071403;28;20241;-65
2022/06/09 05:27:49;;;;;;;16.53;11.80;;;;;;;22.95;75.28;98763.63;5070954;28;20666;-65
2022/06/09 05:30:20;;;;;;;19.50;11.83;;;;;;;22.96;74.73;98764.47;5071018;28;20627;-64
2022/06/09 05:32:48;;;;;;;15.88;12.75;;;;;;;22.81;75.49;98763.41;5070956;28;20446;-65
2022/06/09 05:35:16;;;;;;;15.52;13.20;;;;;;;22.76;75.32;98762.75;5070873;28;20465;-64
2022/06/09 05:45:59;;;;;;;16.30;12.00;;;;;;;22.90;74.44;98757.75;5051138;28;20744;-65
2022/06/09 05:48:27;;;;;;;13.33;12.10;;;;;;;23.01;74.23;98757.25;5059328;28;20276;-65
2022/06/09 05:50:55;;;;;;;15.47;11.00;;;;;;;22.88;73.46;98757.81;5071002;28;20187;-65
2022/06/09 05:53:22;;;;;;;14.50;13.07;;;;;;;22.96;74.39;98756.63;5062188;28;20220;-64
2022/06/09 05:55:49;;;;;;;15.53;12.47;;;;;;;23.06;73.21;98753.50;5070638;28;20184;-64
2022/06/09 05:58:17;;;;;;;15.20;13.17;;;;;;;23.41;72.11;98749.25;5071012;28;20237;-65
2022/06/09 06:00:45;;;;;;;13.10;11.73;;;;;;;23.58;71.21;98748.47;5069218;28;20621;-65
2022/06/09 06:03:13;;;;;;;12.13;10.93;;;;;;;23.63;70.22;98746.44;5064487;28;20206;-65
2022/06/09 06:08:25;;;;;;;14.13;12.70;;;;;;;23.16;72.00;98752.16;5069832;28;20214;-64
2022/06/09 06:10:52;;;;;;;16.80;11.97;;;;;;;23.45;71.52;98748.22;5070683;28;20201;-58
2022/06/09 06:13:21;;;;;;;21.83;12.75;;;;;;;23.79;71.04;98742.16;5050934;28;20473;-56
2022/06/09 06:15:48;;;;;;;18.67;11.93;;;;;;;23.86;69.73;98741.81;5050641;28;20200;-56
2022/06/09 06:18:14;;;;;;;15.57;11.40;;;;;;;23.67;69.84;98746.25;5050821;28;20192;-56
2022/06/09 06:20:41;;;;;;;20.93;13.37;;;;;;;23.54;70.44;98739.88;5061618;28;20192;-56
2022/06/09 06:23:08;;;;;;;17.37;13.23;;;;;;;23.72;70.60;98744.25;5070463;28;20199;-56
2022/06/09 06:25:35;;;;;;;19.63;12.90;;;;;;;23.84;70.66;98748.88;5070301;28;20295;-57
2022/06/09 06:28:02;;;;;;;15.93;12.83;;;;;;;23.99;70.12;98749.91;5068938;28;20458;-57
2022/06/09 06:30:30;;;;;;;14.77;11.30;;;;;;;24.19;69.64;98741.06;5069352;28;20202;-57
2022/06/09 06:32:57;;;;;;;15.70;10.87;;;;;;;24.15;67.94;98752.63;5069573;28;20192;-57
2022/06/09 06:35:24;;;;;;;12.83;10.67;;;;;;;24.22;67.18;98744.38;5067100;28;20199;-57
2022/06/09 06:37:50;;;;;;;12.03;9.53;;;;;;;24.23;66.84;98745.25;5055080;28;20210;-57
2022/06/09 06:40:17;;;;;;;13.87;10.17;;;;;;;24.16;66.48;98731.56;5070041;28;20194;-57
2022/06/09 06:42:44;;;;;;;11.20;10.00;;;;;;;23.88;66.91;98703.22;5063612;28;20199;-57
2022/06/09 06:45:13;;;;;;;15.87;10.53;;;;;;;24.25;66.64;98741.63;5060689;28;20199;-56
2022/06/09 06:47:41;;;;;;;14.00;9.93;;;;;;;24.38;66.09;98747.06;5068931;28;20199;-57
2022/06/09 06:50:10;;;;;;;11.98;10.35;;;;;;;24.39;65.02;98743.53;5068709;28;21184;-56
2022/06/09 06:52:37;;;;;;;9.97;8.97;;;;;;;24.37;64.57;98740.97;5069296;28;20192;-56
2022/06/09 06:55:04;;;;;;;9.13;8.20;;;;;;;24.35;64.12;98742.84;5069387;28;20219;-57
2022/06/09 06:57:31;;;;;;;8.87;8.00;;;;;;;24.48;64.50;98738.63;5069420;28;20589;-57
2022/06/09 06:59:59;;;;;;;10.67;9.07;;;;;;;24.56;64.00;98730.34;5069503;28;20662;-57
2022/06/09 07:02:25;;;;;;;9.07;8.27;;;;;;;24.57;63.05;98708.41;5069418;28;20234;-57
2022/06/09 07:04:54;;;;;;;8.53;7.73;;;;;;;24.78;62.76;98730.09;5067731;28;20199;-56
2022/06/09 07:07:20;;;;;;;8.37;7.57;;;;;;;24.77;61.84;98731.84;5064950;28;20222;-56
2022/06/09 07:09:47;;;;;;;7.73;6.93;;;;;;;24.83;60.37;98736.78;5065805;28;20231;-57
2022/06/09 07:12:14;;;;;;;6.70;6.20;;;;;;;24.59;61.13;98730.19;5069211;28;20585;-57
2022/06/09 07:14:41;;;;;;;9.43;8.63;;;;;;;24.61;61.97;98730.97;5068478;28;20713;-57
2022/06/09 07:17:07;;;;;;;8.10;7.07;;;;;;;24.77;60.70;98737.13;5053219;28;20675;-57
2022/06/09 07:19:34;;;;;;;7.72;7.03;;;;;;;24.70;59.91;98719.97;5067694;28;20544;-57
2022/06/09 07:22:03;;;;;;;7.13;6.53;;;;;;;24.89;60.07;98725.97;5071206;28;20192;-57
2022/06/09 07:24:30;;;;;;;6.80;6.20;;;;;;;25.00;59.58;98731.47;5073657;28;20199;-57
2022/06/09 07:26:56;;;;;;;7.27;6.60;;;;;;;24.55;59.70;98715.53;5076237;28;20195;-65
2022/06/09 07:29:25;;;;;;;7.87;7.10;;;;;;;24.59;60.67;98717.06;5076117;28;20671;-64
2022/06/09 07:31:51;;;;;;;8.37;7.57;;;;;;;24.50;60.91;98705.25;5075810;28;20191;-65
2022/06/09 07:34:18;;;;;;;9.90;8.13;;;;;;;24.52;62.00;98718.31;5075166;28;20225;-65
2022/06/09 07:36:45;;;;;;;8.83;7.90;;;;;;;24.77;61.43;98715.25;5075740;28;20229;-64
2022/06/09 07:39:13;;;;;;;8.30;7.50;;;;;;;24.78;61.00;98701.19;5072419;28;20449;-65
2022/06/09 07:41:40;;;;;;;8.47;7.73;;;;;;;25.22;60.07;98705.72;5075571;28;20222;-64
2022/06/09 07:44:09;;;;;;;8.13;7.33;;;;;;;25.23;59.30;98707.41;5074644;28;20602;-65
2022/06/09 07:46:38;;;;;;;7.53;6.83;;;;;;;25.34;58.95;98704.19;5074796;28;20191;-65
2022/06/09 07:49:06;;;;;;;7.00;6.40;;;;;;;25.48;58.44;98706.94;5073556;28;20721;-64
2022/06/09 07:51:33;;;;;;;7.27;6.60;;;;;;;25.52;57.79;98705.78;5073601;28;20670;-65
2022/06/09 07:54:00;;;;;;;7.63;6.97;;;;;;;25.66;58.24;98700.59;5074828;28;20272;-65
2022/06/09 07:56:32;;;;;;;9.43;7.80;;;;;;;25.97;57.79;98704.94;5073186;28;20179;-64
2022/06/09 07:59:00;;;;;;;7.93;7.23;;;;;;;25.53;57.75;98701.38;5074051;28;20300;-64
2022/06/09 08:01:27;;;;;;;8.20;7.20;;;;;;;25.93;57.47;98697.31;5074690;28;20199;-65
2022/06/09 08:03:54;;;;;;;13.00;10.40;;;;;;;26.10;57.26;98698.00;5075050;28;20658;-65
2022/06/09 08:06:21;;;;;;;10.00;8.93;;;;;;;25.96;56.98;98676.09;5075277;28;20574;-65
2022/06/09 08:08:48;;;;;;;10.50;9.10;;;;;;;26.03;57.78;98696.69;5075353;28;20627;-65
2022/06/09 08:11:15;;;;;;;10.97;9.70;;;;;;;26.24;58.24;98702.47;5075992;28;20190;-64
2022/06/09 08:13:44;;;;;;;13.77;9.90;;;;;;;26.47;57.46;98698.47;5074260;28;20441;-65
2022/06/09 08:16:11;;;;;;;9.07;8.17;;;;;;;26.45;56.51;98705.63;5076028;28;20199;-65
2022/06/09 08:18:38;;;;;;;10.13;8.73;;;;;;;26.45;56.65;98698.56;5076006;28;20199;-64
2022/06/09 08:21:04;;;;;;;8.40;7.67;;;;;;;26.37;56.09;98701.66;5075703;28;20582;-64
2022/06/09 08:23:32;;;;;;;10.50;8.13;;;;;;;26.37;56.22;98695.53;5075493;28;20205;-65
2022/06/09 08:26:02;;;;;;;11.77;8.03;;;;;;;26.53;56.48;98692.81;5075701;28;21050;-64
2022/06/09 08:28:29;;;;;;;11.45;10.35;;;;;;;26.78;56.03;98700.94;5072817;28;20188;-64
2022/06/09 08:30:57;;;;;;;19.07;9.87;;;;;;;26.76;55.12;98687.81;5072335;28;20200;-56
2022/06/09 08:33:27;;;;;;;11.52;10.20;;;;;;;26.88;55.31;98686.25;5071276;28;20442;-56
2022/06/09 08:35:54;;;;;;;12.40;9.50;;;;;;;26.86;54.96;98691.59;5072098;28;20187;-56
2022/06/09 08:38:21;;;;;;;12.00;8.80;;;;;;;26.80;55.04;98677.97;5071733;28;20590;-57
2022/06/09 08:40:57;;;;;;;9.33;8.40;;;;;;;26.72;54.61;98680.22;5071886;28;20196;-58
2022/06/09 08:43:34;;;;;;;7.30;6.70;;;;;;;26.70;52.13;98666.28;5071921;28;20199;-58
2022/06/09 08:46:08;;;;;;;9.87;6.13;;;;;;;26.68;51.63;98660.25;5071343;28;20191;-58
2022/06/09 08:48:41;;;;;;;7.38;6.53;;;;;;;26.15;52.52;98653.84;5071322;28;20229;-57
2022/06/09 08:51:14;;;;;;;7.53;6.90;;;;;;;25.77;53.03;98649.97;5071584;28;20192;-56
2022/06/09 08:53:46;;;;;;;8.27;6.77;;;;;;;25.98;53.51;98653.13;5071189;28;20199;-57
2022/06/09 08:56:22;;;;;;;7.20;6.60;;;;;;;26.13;51.79;98649.56;5071255;28;20192;-57
2022/06/09 08:58:55;;;;;;;7.40;6.70;;;;;;;26.10;50.87;98644.47;5071091;28;20202;-56
2022/06/09 09:01:37;;;;;;;6.87;5.80;;;;;;;26.18;51.25;98640.50;5071486;28;20192;-56
2022/06/09 09:04:15;;;;;;;6.57;6.07;;;;;;;26.14;51.91;98636.38;5071181;28;20191;-56
2022/06/09 09:06:47;;;;;;;6.40;5.90;;;;;;;26.32;51.08;98642.28;5070368;28;20465;-57
2022/06/09 09:09:15;;;;;;;6.70;6.13;;;;;;;26.07;51.00;98640.25;5070495;28;20227;-65
2022/06/09 09:11:53;;;;;;;7.27;6.47;;;;;;;26.16;51.59;98644.16;5071003;28;20195;-65
2022/06/09 09:14:25;;;;;;;7.43;6.83;;;;;;;26.37;50.53;98643.69;5070908;28;20215;-66
2022/06/09 09:17:02;;;;;;;8.17;7.20;;;;;;;26.27;51.17;98634.66;5070855;28;20666;-65
2022/06/09 09:19:47;;;;;;;8.07;6.70;;;;;;;26.45;51.40;98634.50;5070581;28;20191;-65
2022/06/09 09:22:24;;;;;;;7.43;6.83;;;;;;;26.40;50.79;98636.56;5071028;28;20191;-65
2022/06/09 09:25:03;;;;;;;7.73;7.00;;;;;;;26.35;51.03;98634.19;5071070;28;20191;-64
2022/06/09 09:27:41;;;;;;;6.80;6.20;;;;;;;26.34;50.40;98609.63;5070082;28;20870;-65
2022/06/09 09:30:18;;;;;;;7.40;6.60;;;;;;;26.77;50.14;98625.41;5070848;28;20195;-65
2022/06/09 09:32:49;;;;;;;6.77;6.07;;;;;;;26.63;50.16;98599.06;5070885;28;20215;-65
2022/06/09 09:35:19;;;;;;;8.03;6.60;;;;;;;26.64;51.29;98629.75;5070941;28;20600;-58
2022/06/09 09:37:48;;;;;;;7.03;6.20;;;;;;;26.51;50.79;98621.75;5071050;28;20194;-57
2022/06/09 09:40:21;;;;;;;8.80;7.10;;;;;;;26.54;50.57;98610.19;5069650;28;20196;-57
2022/06/09 09:42:50;;;;;;;7.00;6.40;;;;;;;26.86;49.92;98612.50;5070300;28;20184;-57
2022/06/09 09:45:19;;;;;;;6.90;6.20;;;;;;;27.13;49.73;98604.63;5070213;28;20196;-57
2022/06/09 09:47:51;;;;;;;7.60;6.43;;;;;;;27.44;48.37;98609.59;5070094;28;20210;-58
2022/06/09 09:50:30;;;;;;;7.70;6.23;;;;;;;27.55;46.30;98610.69;5070521;28;20192;-57
2022/06/09 09:53:04;;;;;;;6.57;6.07;;;;;;;27.58;45.99;98598.13;5070751;28;20199;-57
2022/06/09 09:55:35;;;;;;;5.73;5.23;;;;;;;27.60;45.41;98601.53;5070100;28;20219;-58
2022/06/09 09:58:27;;;;;;;6.68;6.07;;;;;;;27.41;45.44;98591.31;5070127;28;20584;-57
2022/06/09 10:00:57;;;;;;;6.82;5.80;;;;;;;27.39;46.86;98581.78;5069377;28;20436;-57
2022/06/09 10:09:19;;;;;;;8.13;6.50;;;;;;;28.50;48.70;98578.50;5053702;28;20223;-58
2022/06/09 10:11:55;;;;;;;7.53;6.93;;;;;;;28.57;49.17;98581.53;5067385;28;20261;-58
2022/06/09 10:14:37;;;;;;;8.30;7.18;;;;;;;28.57;49.24;98578.88;5068424;28;20222;-58
2022/06/09 10:17:08;;;;;;;9.13;8.30;;;;;;;28.37;48.88;98569.75;5061641;28;20228;-57
2022/06/09 10:19:36;;;;;;;11.40;9.25;;;;;;;28.12;50.06;98569.78;5068104;28;20437;-57
2022/06/09 10:22:16;;;;;;;7.85;7.15;;;;;;;28.18;49.77;98572.00;5066498;28;20623;-57
2022/06/09 10:24:49;;;;;;;8.38;7.57;;;;;;;27.98;49.47;98583.06;5069065;28;20198;-56
2022/06/09 10:27:21;;;;;;;7.53;6.78;;;;;;;27.95;49.44;98584.13;5068898;28;20196;-57
2022/06/09 10:29:52;;;;;;;7.80;7.07;;;;;;;28.11;49.36;98570.72;5069173;28;20192;-56
2022/06/09 10:32:24;;;;;;;7.47;6.82;;;;;;;28.36;47.99;98575.13;5068194;28;20565;-56
2022/06/09 10:35:00;;;;;;;7.93;7.22;;;;;;;28.53;45.86;98566.84;5062746;28;20211;-57
2022/06/09 10:37:40;;;;;;;7.03;6.43;;;;;;;28.87;46.35;98554.72;5067034;28;20195;-64
2022/06/09 10:40:14;;;;;;;11.30;7.53;;;;;;;28.80;46.20;98546.38;5063717;28;20203;-64
2022/06/09 10:42:46;;;;;;;8.15;7.50;;;;;;;29.06;45.85;98541.84;5066826;28;20195;-64
2022/06/09 10:45:24;;;;;;;7.97;7.28;;;;;;;29.04;45.23;98536.66;5066812;28;20192;-57
2022/06/09 10:56:35;;;;;;;11.18;7.10;;;;;;;29.41;45.46;98518.03;5066205;28;20203;-63
2022/06/09 10:59:14;;;;;;;10.82;6.70;;;;;;;29.40;45.39;98519.84;5066379;28;20190;-64
2022/06/09 11:01:42;;;;;;;7.93;7.20;;;;;;;29.54;45.61;98516.16;5061047;28;20199;-63
2022/06/09 11:04:14;;;;;;;8.07;6.22;;;;;;;29.45;45.73;98506.25;5059593;28;20195;-64
2022/06/09 11:07:01;;;;;;;16.95;7.63;;;;;;;29.27;45.44;98503.22;5069207;28;20195;-64
2022/06/09 11:09:39;;;;;;;9.57;6.68;;;;;;;28.67;46.57;98500.66;5068981;28;20235;-63
2022/06/09 11:12:20;;;;;;;7.72;6.10;;;;;;;28.73;46.26;98496.72;5068907;28;20192;-63
2022/06/09 11:14:58;;;;;;;8.27;6.35;;;;;;;28.64;46.03;98491.16;5049398;28;20219;-63
2022/06/09 11:17:39;;;;;;;6.50;5.90;;;;;;;28.91;44.35;98487.41;5066395;28;20203;-64
2022/06/09 11:20:17;;;;;;;7.75;6.93;;;;;;;29.02;44.44;98484.81;5069302;28;20669;-64
2022/06/09 11:22:54;;;;;;;7.05;6.43;;;;;;;29.09;43.88;98486.88;5069576;28;20199;-64
2022/06/09 11:25:33;;;;;;;7.22;6.00;;;;;;;29.09;43.98;98489.53;5069178;28;20191;-64
2022/06/09 11:28:13;;;;;;;7.75;5.90;;;;;;;29.32;44.08;98487.81;5055919;28;20194;-64
2022/06/09 11:30:59;;;;;;;8.73;6.22;;;;;;;28.85;44.63;98487.88;5069509;28;20198;-63
2022/06/09 11:33:45;;;;;;;6.22;5.63;;;;;;;28.97;45.06;98485.16;5069630;28;20547;-64
2022/06/09 11:36:20;;;;;;;6.45;5.85;;;;;;;28.89;43.94;98479.59;5069135;28;20314;-64
2022/06/09 11:38:58;;;;;;;6.25;5.75;;;;;;;29.05;44.40;98479.28;5069100;28;20194;-64
2022/06/09 11:41:35;;;;;;;7.35;6.68;;;;;;;29.28;43.53;98475.81;5068223;28;20424;-65
2022/06/09 11:44:14;;;;;;;6.95;6.25;;;;;;;29.39;43.38;98478.47;5069260;28;20207;-65
2022/06/09 11:46:43;;;;;;;6.40;5.90;;;;;;;29.40;42.43;98484.59;5054808;28;20202;-65
2022/06/09 11:49:15;;;;;;;6.22;5.65;;;;;;;29.43;43.43;98482.56;5057280;28;20192;-65
2022/06/09 11:51:42;;;;;;;7.10;6.28;;;;;;;29.66;42.47;98481.63;5067240;28;20215;-64
2022/06/09 11:54:38;;;;;;;6.72;5.88;;;;;;;29.71;40.84;98473.31;5068917;28;20328;-65
2022/06/09 11:57:48;;;;;;;6.30;5.80;;;;;;;29.66;40.95;98486.94;5068980;28;20620;-65
2022/06/09 12:00:36;;;;;;;7.25;5.60;;;;;;;29.63;42.05;98491.63;5063858;28;20670;-63
2022/06/09 12:03:20;;;;;;;6.30;5.70;;;;;;;29.98;42.05;98492.38;5067922;28;20452;-64
2022/06/09 12:05:53;;;;;;;6.60;6.00;;;;;;;30.21;41.83;98490.56;5073078;28;20196;-64
2022/06/09 12:08:32;;;;;;;5.43;5.03;;;;;;;30.12;40.40;98493.94;5070987;28;20207;-65
2022/06/09 12:11:09;;;;;;;6.20;5.65;;;;;;;30.19;40.03;98485.38;5061899;28;20195;-65